Terminal Aerodrome Forecast
Issued by NWS

Home | Current Version | Previous Version | Text Only | Print | Product List | Glossary On
Versions: 1 2 3 4 5 6 7 8 9 10 11 12 13 14 15
000
FTUS45 KTFX 271455 AAA
TAFBZN
TAF AMD
KBZN 271455Z 2715/2812 VRB06KT P6SM SCT060 BKN100
      TEMPO 2715/2719 3SM -SHRA SCT020 OVC040
     FM271900 VRB06KT P6SM FEW020 BKN040
      TEMPO 2720/2724 VRB15G25KT 5SM -TSRA BKN040CB
     FM280000 28007KT P6SM -SHRA SCT030 BKN060
      TEMPO 2801/2804 VRB15G25KT 5SM -TSRA BKN030CB=

USA.gov is the U.S. government's official web portal to all federal, state and local government web resources and services.